Time;durP1;ratioP1;P1;durP2;ratioP2;P2;SDS_P1;SDS_P2;PMS_P1;PMS_P2;Temp;Humidity;BMP_temperature;BMP_pressure;BME280_temperature;BME280_humidity;BME280_pressure;Samples;Min_cycle;Max_cycle;Signal;HPM_P1;HPM_P2
2022/03/14 00:00:36;;;;;;;24.30;21.30;;;11.10;47.50;;;;;;5000555;28;20307;-89
2022/03/14 00:03:02;;;;;;;22.73;20.13;;;11.20;48.30;;;;;;5034706;28;20181;-89
2022/03/14 00:05:31;;;;;;;22.07;19.77;;;11.20;49.70;;;;;;5034252;28;20177;-89
2022/03/14 00:07:59;;;;;;;20.00;18.00;;;11.20;50.80;;;;;;5034729;28;20818;-89
2022/03/14 00:10:25;;;;;;;20.73;18.57;;;11.10;53.90;;;;;;5027544;28;20809;-89
2022/03/14 00:12:56;;;;;;;22.90;17.00;;;11.00;56.40;;;;;;5025693;28;20232;-89
2022/03/14 00:15:22;;;;;;;18.30;16.27;;;11.00;59.30;;;;;;5012328;28;20193;-89
2022/03/14 00:17:49;;;;;;;17.20;15.40;;;11.00;61.30;;;;;;5031431;28;20189;-89
2022/03/14 00:20:15;;;;;;;18.57;16.57;;;11.10;61.80;;;;;;5029321;28;20291;-89
2022/03/14 00:22:43;;;;;;;16.60;14.90;;;11.10;64.10;;;;;;5045795;28;20215;-89
2022/03/14 00:25:10;;;;;;;15.20;13.70;;;11.10;66.70;;;;;;5037877;28;20192;-89
2022/03/14 00:27:37;;;;;;;14.47;12.87;;;11.10;71.60;;;;;;5051268;28;20204;-88
2022/03/14 00:30:08;;;;;;;15.27;12.27;;;11.20;76.10;;;;;;5022885;28;20197;-89
2022/03/14 00:32:34;;;;;;;12.80;11.50;;;11.30;79.10;;;;;;5056974;28;20204;-90
2022/03/14 00:35:01;;;;;;;11.67;8.33;;;11.10;82.10;;;;;;5040645;28;20192;-89
2022/03/14 00:37:27;;;;;;;8.93;6.70;;;11.10;81.90;;;;;;5033161;28;20196;-90
2022/03/14 00:39:53;;;;;;;7.60;4.33;;;11.10;81.00;;;;;;5034408;28;20216;-88
2022/03/14 00:42:21;;;;;;;7.33;4.13;;;11.00;79.20;;;;;;5035525;28;20200;-90
2022/03/14 00:44:47;;;;;;;5.27;3.60;;;10.90;79.60;;;;;;4996438;28;20265;-88
2022/03/14 00:47:13;;;;;;;4.10;3.70;;;10.80;79.90;;;;;;5011839;28;20189;-89
2022/03/14 00:49:39;;;;;;;3.77;3.20;;;10.70;82.10;;;;;;5017139;28;20551;-88
2022/03/14 00:52:05;;;;;;;5.17;2.50;;;10.60;84.20;;;;;;5022356;28;20205;-88
2022/03/14 00:54:31;;;;;;;2.40;2.20;;;10.50;87.30;;;;;;5034204;28;20182;-88
2022/03/14 00:56:57;;;;;;;2.77;2.57;;;10.40;88.60;;;;;;5006748;28;20213;-88
2022/03/14 00:59:24;;;;;;;2.50;2.30;;;10.30;91.50;;;;;;5026959;28;20209;-88
2022/03/14 01:01:51;;;;;;;3.33;2.60;;;10.30;93.10;;;;;;5030673;28;20200;-90
2022/03/14 01:04:17;;;;;;;2.60;2.40;;;10.20;96.00;;;;;;5000374;28;20193;-89
2022/03/14 01:06:43;;;;;;;2.87;2.53;;;10.00;96.30;;;;;;5024524;28;20186;-89
2022/03/14 01:09:11;;;;;;;2.80;2.20;;;10.00;98.70;;;;;;5015594;28;20248;-88
2022/03/14 01:11:43;;;;;;;2.33;2.13;;;9.90;99.60;;;;;;5016182;28;20213;-88
2022/03/14 01:14:09;;;;;;;3.57;2.37;;;9.90;99.90;;;;;;5035404;28;20192;-89
2022/03/14 01:16:35;;;;;;;3.87;1.90;;;9.90;99.90;;;;;;5011109;28;20214;-88
2022/03/14 01:19:00;;;;;;;2.03;1.93;;;9.90;99.90;;;;;;5058691;28;20294;-88
2022/03/14 01:21:29;;;;;;;2.03;1.90;;;9.80;99.90;;;;;;5058486;28;20228;-88
2022/03/14 01:23:55;;;;;;;2.10;1.90;;;9.60;99.90;;;;;;5018196;28;20196;-88
2022/03/14 01:26:21;;;;;;;1.53;1.43;;;9.60;99.90;;;;;;5020563;28;20275;-87
2022/03/14 01:28:48;;;;;;;1.83;1.73;;;9.50;99.90;;;;;;5020882;28;20633;-87
2022/03/14 01:31:14;;;;;;;1.87;1.77;;;9.50;99.90;;;;;;5030403;28;20213;-87
2022/03/14 01:33:39;;;;;;;1.70;1.60;;;9.50;99.90;;;;;;5032729;28;20253;-88
2022/03/14 01:36:05;;;;;;;1.60;1.50;;;9.40;99.90;;;;;;5025221;28;20198;-88
2022/03/14 01:38:31;;;;;;;1.73;1.63;;;9.30;99.90;;;;;;5021197;28;20196;-89
2022/03/14 01:40:57;;;;;;;2.30;1.70;;;9.30;99.90;;;;;;5020683;28;20721;-87
2022/03/14 01:43:24;;;;;;;1.23;1.20;;;9.20;99.90;;;;;;5011668;28;20197;-88
2022/03/14 01:45:50;;;;;;;1.20;1.20;;;9.10;99.90;;;;;;5029275;28;20185;-88
2022/03/14 01:48:16;;;;;;;1.40;1.30;;;9.00;99.90;;;;;;5032413;28;20219;-88
2022/03/14 01:50:41;;;;;;;2.00;1.40;;;9.10;99.90;;;;;;4998086;28;20189;-88
2022/03/14 01:53:08;;;;;;;1.77;1.17;;;9.10;99.90;;;;;;4998378;28;20300;-88
2022/03/14 01:55:34;;;;;;;1.33;1.23;;;9.10;99.90;;;;;;5013247;28;20184;-88
2022/03/14 01:58:03;;;;;;;1.13;1.13;;;9.10;99.90;;;;;;5014144;28;20213;-88
2022/03/14 02:00:29;;;;;;;1.23;1.13;;;9.20;99.90;;;;;;5029948;28;20201;-87
2022/03/14 02:02:55;;;;;;;1.20;1.20;;;9.10;99.90;;;;;;5025913;28;20738;-88
2022/03/14 02:05:21;;;;;;;1.17;1.07;;;9.20;99.90;;;;;;5035817;28;20177;-88
2022/03/14 02:07:46;;;;;;;1.30;1.20;;;9.10;99.90;;;;;;5036047;28;20188;-88
2022/03/14 02:10:12;;;;;;;0.90;0.90;;;9.10;99.90;;;;;;5014413;28;20649;-88
2022/03/14 02:12:42;;;;;;;0.90;0.90;;;9.00;99.90;;;;;;5036191;28;20571;-88
2022/03/14 02:15:08;;;;;;;0.90;0.77;;;9.00;99.90;;;;;;5055273;28;20283;-88
2022/03/14 02:17:34;;;;;;;0.90;0.90;;;9.00;99.90;;;;;;5025552;28;20232;-88
2022/03/14 02:20:00;;;;;;;1.00;1.00;;;9.10;99.90;;;;;;5024279;28;20221;-88
2022/03/14 02:22:26;;;;;;;1.00;1.00;;;8.90;99.90;;;;;;5036398;28;20251;-88
2022/03/14 02:24:51;;;;;;;1.03;1.03;;;9.00;99.90;;;;;;5036743;28;20196;-88
2022/03/14 02:27:18;;;;;;;0.90;0.90;;;9.00;99.90;;;;;;5032830;28;20189;-88
2022/03/14 02:29:43;;;;;;;0.90;0.90;;;8.90;99.90;;;;;;5014370;28;20702;-88
2022/03/14 02:32:13;;;;;;;1.93;1.23;;;8.90;99.90;;;;;;5023156;28;20229;-88
2022/03/14 02:34:40;;;;;;;1.80;1.23;;;8.90;99.90;;;;;;5023719;28;20276;-88
2022/03/14 02:37:06;;;;;;;1.10;1.10;;;8.90;99.90;;;;;;5032687;28;20200;-88
2022/03/14 02:39:32;;;;;;;1.17;1.10;;;8.90;99.90;;;;;;5000300;28;20216;-88
2022/03/14 02:42:01;;;;;;;1.17;1.17;;;8.90;99.90;;;;;;5033094;28;20734;-88
2022/03/14 02:44:27;;;;;;;1.37;1.27;;;8.90;99.90;;;;;;5034658;28;20203;-88
2022/03/14 02:46:53;;;;;;;1.17;1.17;;;8.90;99.90;;;;;;5033077;28;20190;-88
2022/03/14 02:49:19;;;;;;;1.10;1.10;;;9.00;99.90;;;;;;5039599;28;20189;-88
2022/03/14 02:51:46;;;;;;;1.00;1.00;;;9.00;99.90;;;;;;5042601;28;20239;-88
2022/03/14 02:54:12;;;;;;;1.27;1.10;;;9.00;99.90;;;;;;5016581;28;20545;-88
2022/03/14 02:56:39;;;;;;;1.30;1.20;;;9.00;99.90;;;;;;4997645;28;20197;-88
2022/03/14 02:59:07;;;;;;;1.40;1.30;;;9.00;99.90;;;;;;5026340;28;20215;-88
2022/03/14 03:01:36;;;;;;;1.10;1.10;;;8.80;99.90;;;;;;5027159;28;20633;-88
2022/03/14 03:04:02;;;;;;;1.10;1.10;;;8.70;99.90;;;;;;5015327;28;20182;-88
2022/03/14 03:06:28;;;;;;;1.00;1.00;;;8.80;99.90;;;;;;5009579;28;20191;-88
2022/03/14 03:08:55;;;;;;;1.20;1.20;;;8.80;99.90;;;;;;5009437;28;20272;-88
2022/03/14 03:11:22;;;;;;;2.23;1.30;;;8.70;99.90;;;;;;5016739;28;20224;-88
2022/03/14 03:13:48;;;;;;;1.10;1.10;;;8.80;99.90;;;;;;5022583;28;20208;-88
2022/03/14 03:16:16;;;;;;;1.67;1.57;;;8.70;99.90;;;;;;5015038;28;20190;-88
2022/03/14 03:18:42;;;;;;;1.47;1.37;;;8.70;99.90;;;;;;5031119;28;20173;-88
2022/03/14 03:21:08;;;;;;;1.03;1.03;;;8.70;99.90;;;;;;5033134;28;20208;-88
2022/03/14 03:23:35;;;;;;;1.40;1.37;;;8.70;99.90;;;;;;5020649;28;20193;-88
2022/03/14 03:26:04;;;;;;;1.60;1.33;;;8.60;99.90;;;;;;5021173;28;20189;-88
2022/03/14 03:28:37;;;;;;;1.90;1.67;;;8.70;99.90;;;;;;5018854;28;20588;-88
2022/03/14 03:31:19;;;;;;;1.70;1.60;;;8.60;99.90;;;;;;5026459;28;20225;-88
2022/03/14 03:33:47;;;;;;;2.23;2.00;;;8.60;99.90;;;;;;5018004;28;20177;-88
2022/03/14 03:36:13;;;;;;;2.50;2.13;;;8.60;99.90;;;;;;5031063;28;20209;-88
2022/03/14 03:38:38;;;;;;;2.60;2.40;;;8.50;99.90;;;;;;5022467;28;20807;-88
2022/03/14 03:41:04;;;;;;;2.63;2.43;;;8.60;99.90;;;;;;5004901;28;20289;-88
2022/03/14 03:43:30;;;;;;;3.40;2.60;;;8.50;99.90;;;;;;5017893;28;20272;-88
2022/03/14 03:45:56;;;;;;;3.07;2.20;;;8.50;99.90;;;;;;5016468;28;20252;-88
2022/03/14 03:48:22;;;;;;;5.73;2.40;;;8.50;99.90;;;;;;5016359;28;20185;-88
2022/03/14 03:50:48;;;;;;;2.80;2.50;;;8.50;99.90;;;;;;5016336;28;20645;-88
2022/03/14 03:53:14;;;;;;;2.50;2.10;;;8.50;99.90;;;;;;5033566;28;20207;-87
2022/03/14 03:55:40;;;;;;;2.37;2.17;;;8.50;99.90;;;;;;4999490;28;20771;-87
2022/03/14 03:58:06;;;;;;;2.10;1.87;;;8.50;99.90;;;;;;5029433;28;20185;-88
2022/03/14 04:00:32;;;;;;;2.87;2.00;;;8.50;99.90;;;;;;5020314;28;20209;-88
2022/03/14 04:02:58;;;;;;;2.83;1.97;;;8.40;99.90;;;;;;5023907;28;20234;-87
2022/03/14 04:05:27;;;;;;;2.40;1.57;;;8.40;99.90;;;;;;5037023;28;20397;-87
2022/03/14 04:07:57;;;;;;;1.77;1.67;;;8.40;99.90;;;;;;5034568;28;20177;-88
2022/03/14 04:10:28;;;;;;;1.40;1.30;;;8.50;99.90;;;;;;4996332;28;20205;-87
2022/03/14 04:13:02;;;;;;;1.70;1.60;;;8.40;99.90;;;;;;5013331;28;20209;-87
2022/03/14 04:15:28;;;;;;;1.83;1.60;;;8.40;99.90;;;;;;5000585;28;20331;-88
2022/03/14 04:17:57;;;;;;;1.50;1.40;;;8.30;99.90;;;;;;5002007;28;20288;-87
2022/03/14 04:20:24;;;;;;;2.57;1.57;;;8.40;99.90;;;;;;4997501;28;20205;-87
2022/03/14 04:22:53;;;;;;;4.37;1.70;;;8.30;99.90;;;;;;5014715;28;20201;-87
2022/03/14 04:25:19;;;;;;;1.63;1.53;;;8.20;99.90;;;;;;5016158;28;20182;-87
2022/03/14 04:27:44;;;;;;;1.77;1.57;;;8.20;99.90;;;;;;5027673;28;20191;-88
2022/03/14 04:30:11;;;;;;;1.63;1.53;;;8.20;99.90;;;;;;5027501;28;20219;-87
2022/03/14 04:32:36;;;;;;;1.73;1.63;;;8.20;99.90;;;;;;5033107;28;20256;-88
2022/03/14 04:35:02;;;;;;;2.50;1.83;;;8.30;99.90;;;;;;4997547;28;20184;-87
2022/03/14 04:37:28;;;;;;;2.30;1.70;;;8.30;99.90;;;;;;5034299;28;20177;-88
2022/03/14 04:39:54;;;;;;;1.93;1.63;;;8.30;99.90;;;;;;5034180;28;20232;-87
2022/03/14 04:42:21;;;;;;;2.30;1.60;;;8.30;99.90;;;;;;5006481;28;20202;-87
2022/03/14 04:44:49;;;;;;;1.50;1.40;;;8.30;99.90;;;;;;5020020;28;20185;-87
2022/03/14 04:47:16;;;;;;;2.50;1.63;;;8.30;99.90;;;;;;5023221;28;20177;-87
2022/03/14 04:49:42;;;;;;;2.17;1.50;;;8.20;99.90;;;;;;5021775;28;20176;-88
2022/03/14 04:52:08;;;;;;;1.60;1.50;;;8.20;99.90;;;;;;5017712;28;20262;-87
2022/03/14 04:54:34;;;;;;;1.60;1.50;;;8.20;99.90;;;;;;5002360;28;20201;-88
2022/03/14 04:57:00;;;;;;;1.80;1.60;;;8.10;99.90;;;;;;5009819;28;20189;-87
2022/03/14 04:59:26;;;;;;;1.70;1.60;;;8.20;99.90;;;;;;5027950;28;20615;-88
2022/03/14 05:01:52;;;;;;;1.60;1.43;;;8.20;99.90;;;;;;5039296;28;20215;-88
2022/03/14 05:04:18;;;;;;;1.67;1.57;;;8.30;99.90;;;;;;5068999;28;20189;-87
2022/03/14 05:06:44;;;;;;;1.73;1.63;;;8.30;99.90;;;;;;5058559;28;20188;-87
2022/03/14 05:09:10;;;;;;;2.27;1.60;;;8.20;99.90;;;;;;5041534;28;20213;-87
2022/03/14 05:11:38;;;;;;;1.77;1.67;;;8.30;99.90;;;;;;5045390;28;20231;-88
2022/03/14 05:14:06;;;;;;;2.00;1.90;;;8.30;99.90;;;;;;5031081;28;20181;-87
2022/03/14 05:16:32;;;;;;;2.07;1.60;;;8.30;99.90;;;;;;5026599;28;20182;-87
2022/03/14 05:18:58;;;;;;;1.63;1.53;;;8.30;99.90;;;;;;5023037;28;20549;-88
2022/03/14 05:21:23;;;;;;;2.00;1.70;;;8.20;99.90;;;;;;5022546;28;20220;-88
2022/03/14 05:23:49;;;;;;;1.97;1.60;;;8.20;99.90;;;;;;5020571;28;20598;-88
2022/03/14 05:26:15;;;;;;;1.80;1.70;;;8.10;99.90;;;;;;5034079;28;20267;-88
2022/03/14 05:28:40;;;;;;;1.57;1.47;;;8.10;99.90;;;;;;5017612;28;20344;-87
2022/03/14 05:31:06;;;;;;;1.43;1.33;;;8.10;99.90;;;;;;5033415;28;20228;-87
2022/03/14 05:33:32;;;;;;;2.20;1.30;;;8.10;99.90;;;;;;5011605;28;20202;-87
2022/03/14 05:35:58;;;;;;;2.00;1.80;;;8.10;99.90;;;;;;5027215;28;20236;-86
2022/03/14 05:38:24;;;;;;;1.93;1.60;;;8.00;99.90;;;;;;5004977;28;20652;-86
2022/03/14 05:40:51;;;;;;;3.70;2.00;;;8.00;99.90;;;;;;4989304;28;20208;-86
2022/03/14 05:43:17;;;;;;;1.90;1.80;;;8.00;99.90;;;;;;5025470;28;20177;-85
2022/03/14 05:45:43;;;;;;;1.87;1.63;;;8.10;99.90;;;;;;5034753;28;20186;-85
2022/03/14 05:48:09;;;;;;;2.17;1.80;;;8.10;99.90;;;;;;5032401;28;20178;-86
2022/03/14 05:50:34;;;;;;;3.17;1.63;;;8.10;99.90;;;;;;5014823;28;20185;-84
2022/03/14 05:53:01;;;;;;;1.87;1.57;;;8.10;99.90;;;;;;5026299;28;20185;-87
2022/03/14 05:55:27;;;;;;;2.73;1.83;;;8.00;99.90;;;;;;5031445;28;20189;-85
2022/03/14 05:57:53;;;;;;;2.20;1.83;;;8.10;99.90;;;;;;5020824;28;20176;-87
2022/03/14 06:00:24;;;;;;;2.40;1.90;;;8.00;99.90;;;;;;5037497;28;20301;-87
2022/03/14 06:02:54;;;;;;;3.10;2.30;;;7.90;99.90;;;;;;5028972;28;20247;-86
2022/03/14 06:05:21;;;;;;;3.30;2.20;;;7.90;99.90;;;;;;5003124;28;20644;-87
2022/03/14 06:07:48;;;;;;;4.03;2.20;;;7.90;99.90;;;;;;5013156;28;20197;-85
2022/03/14 06:10:15;;;;;;;4.03;2.30;;;7.90;99.90;;;;;;5038641;28;20243;-85
2022/03/14 06:12:41;;;;;;;2.53;2.00;;;7.90;99.90;;;;;;5038556;28;20201;-86
2022/03/14 06:15:09;;;;;;;5.30;1.90;;;7.90;99.90;;;;;;5030723;28;20193;-85
2022/03/14 06:17:35;;;;;;;2.47;2.23;;;7.90;99.90;;;;;;5013457;28;20232;-87
2022/03/14 06:20:01;;;;;;;3.10;1.80;;;7.90;99.90;;;;;;5039398;28;20201;-85
2022/03/14 06:22:27;;;;;;;4.43;1.90;;;7.90;99.90;;;;;;5040828;28;20204;-83
2022/03/14 06:24:52;;;;;;;5.00;2.17;;;7.80;99.90;;;;;;5028325;28;20213;-85
2022/03/14 06:27:21;;;;;;;5.17;2.10;;;7.80;99.90;;;;;;5005211;28;20181;-85
2022/03/14 06:29:47;;;;;;;3.40;2.13;;;7.80;99.90;;;;;;5004100;28;20182;-85
2022/03/14 06:32:13;;;;;;;2.43;1.93;;;7.70;99.90;;;;;;5018289;28;20275;-85
2022/03/14 06:34:39;;;;;;;3.00;2.00;;;7.70;99.90;;;;;;5020270;28;20240;-85
2022/03/14 06:37:09;;;;;;;3.13;1.97;;;7.80;99.90;;;;;;5036226;28;20177;-85
2022/03/14 06:39:36;;;;;;;3.73;1.77;;;7.90;99.90;;;;;;5038889;28;20680;-85
2022/03/14 06:42:08;;;;;;;3.00;1.67;;;7.90;99.90;;;;;;5040481;28;20295;-85
2022/03/14 06:44:36;;;;;;;4.67;2.20;;;8.00;99.90;;;;;;5022262;28;20177;-85
2022/03/14 06:47:01;;;;;;;2.33;1.70;;;8.00;99.90;;;;;;5030984;28;20239;-87
2022/03/14 06:49:28;;;;;;;3.87;1.90;;;8.10;99.90;;;;;;5029347;28;20277;-86
2022/03/14 06:51:53;;;;;;;4.07;1.87;;;7.90;99.90;;;;;;5029867;28;20691;-86
2022/03/14 06:54:19;;;;;;;3.00;1.77;;;8.00;99.90;;;;;;5017973;28;20242;-85
2022/03/14 06:56:47;;;;;;;5.03;1.90;;;7.90;99.90;;;;;;5046662;28;20616;-85
2022/03/14 06:59:12;;;;;;;1.93;1.50;;;7.80;99.90;;;;;;5016363;28;20213;-86
2022/03/14 07:01:38;;;;;;;6.30;1.90;;;7.80;99.90;;;;;;5035960;28;20201;-86
2022/03/14 07:04:04;;;;;;;2.47;1.83;;;7.80;99.90;;;;;;5036071;28;20189;-86
2022/03/14 07:06:29;;;;;;;4.30;1.93;;;7.80;99.90;;;;;;5039407;28;20189;-86
2022/03/14 07:08:55;;;;;;;2.10;1.70;;;7.80;99.90;;;;;;5028595;28;20196;-85
2022/03/14 07:11:21;;;;;;;2.20;2.00;;;7.90;99.90;;;;;;5040700;28;20193;-86
2022/03/14 07:13:47;;;;;;;2.50;1.80;;;7.90;99.90;;;;;;5018481;28;20193;-86
2022/03/14 07:16:12;;;;;;;3.37;1.70;;;7.90;99.90;;;;;;5021975;28;20188;-86
2022/03/14 07:18:38;;;;;;;2.20;1.80;;;8.10;99.90;;;;;;5028046;28;20207;-86
2022/03/14 07:21:04;;;;;;;3.70;1.90;;;8.10;99.90;;;;;;5030847;28;20217;-85
2022/03/14 07:23:29;;;;;;;2.10;1.90;;;8.10;99.90;;;;;;5027422;28;20235;-86
2022/03/14 07:25:55;;;;;;;3.03;1.60;;;8.00;99.90;;;;;;5005777;28;20188;-86
2022/03/14 07:28:20;;;;;;;3.60;1.70;;;8.00;99.90;;;;;;5051474;28;20208;-86
2022/03/14 07:30:46;;;;;;;2.93;1.50;;;8.20;99.90;;;;;;5024683;28;20257;-88
2022/03/14 07:33:12;;;;;;;4.30;2.20;;;8.20;99.90;;;;;;5038119;28;20241;-86
2022/03/14 07:35:38;;;;;;;2.80;1.80;;;8.10;99.90;;;;;;5037103;28;20187;-87
2022/03/14 07:38:05;;;;;;;2.33;1.50;;;8.20;99.90;;;;;;5039825;28;20281;-85
2022/03/14 07:40:32;;;;;;;4.30;1.67;;;8.20;99.90;;;;;;5027202;28;20240;-85
2022/03/14 07:42:59;;;;;;;2.20;1.53;;;8.20;99.90;;;;;;5030233;28;20578;-87
2022/03/14 07:45:26;;;;;;;3.87;1.90;;;8.20;99.90;;;;;;5031623;28;20182;-84
2022/03/14 07:47:58;;;;;;;2.00;1.80;;;8.20;99.90;;;;;;5029085;28;20181;-85
2022/03/14 07:50:26;;;;;;;2.53;1.60;;;8.40;99.90;;;;;;5043985;28;20172;-85
2022/03/14 07:52:53;;;;;;;2.07;1.50;;;8.40;99.90;;;;;;5046828;28;20200;-85
2022/03/14 07:55:19;;;;;;;3.70;1.60;;;8.50;99.90;;;;;;5047464;28;20188;-85
2022/03/14 07:57:44;;;;;;;2.37;1.70;;;8.50;99.90;;;;;;5028834;28;20268;-85
2022/03/14 08:00:15;;;;;;;2.80;1.60;;;8.60;99.90;;;;;;5033494;28;20294;-85
2022/03/14 08:02:42;;;;;;;4.67;1.43;;;8.60;99.90;;;;;;5038422;28;20281;-86
2022/03/14 08:05:09;;;;;;;2.50;1.83;;;8.70;99.90;;;;;;5034547;28;20192;-88
2022/03/14 08:07:35;;;;;;;3.10;1.83;;;8.60;99.90;;;;;;5047135;28;20527;-85
2022/03/14 08:10:06;;;;;;;3.37;1.70;;;8.80;99.90;;;;;;5048849;28;20188;-86
2022/03/14 08:12:43;;;;;;;2.27;1.53;;;9.00;99.90;;;;;;5030777;28;20195;-86
2022/03/14 08:15:09;;;;;;;1.87;1.50;;;8.90;99.90;;;;;;5025663;28;20715;-87
2022/03/14 08:17:35;;;;;;;1.50;1.37;;;8.90;99.90;;;;;;5034917;28;20190;-87
2022/03/14 08:20:02;;;;;;;2.20;1.50;;;9.00;99.90;;;;;;5023009;28;20208;-87
2022/03/14 08:22:27;;;;;;;4.43;1.73;;;8.80;99.90;;;;;;5043697;28;20209;-86
2022/03/14 08:24:53;;;;;;;3.40;1.90;;;8.90;99.90;;;;;;5039708;28;20189;-86
2022/03/14 08:27:19;;;;;;;2.00;1.70;;;9.00;99.90;;;;;;5015067;28;20220;-87
2022/03/14 08:29:45;;;;;;;4.80;2.10;;;9.20;99.90;;;;;;5007440;28;20185;-86
2022/03/14 08:32:12;;;;;;;3.33;1.90;;;9.30;99.90;;;;;;5040475;28;20252;-86
2022/03/14 08:34:38;;;;;;;3.70;1.70;;;9.40;99.00;;;;;;5034148;28;20189;-86
2022/03/14 08:37:04;;;;;;;1.57;1.43;;;9.20;98.40;;;;;;5041798;28;20200;-87
2022/03/14 08:39:31;;;;;;;3.37;1.83;;;9.20;99.90;;;;;;5029970;28;20209;-87
2022/03/14 08:41:58;;;;;;;6.10;4.23;;;9.40;99.90;;;;;;5046649;28;20564;-87
2022/03/14 08:44:24;;;;;;;7.60;2.20;;;9.50;99.90;;;;;;5029051;28;20177;-87
2022/03/14 08:46:50;;;;;;;5.57;1.83;;;9.70;95.00;;;;;;5044919;28;20215;-87
2022/03/14 08:49:15;;;;;;;4.97;1.70;;;9.70;98.60;;;;;;5036463;28;20189;-87
2022/03/14 08:51:41;;;;;;;3.47;2.03;;;9.70;93.20;;;;;;5030850;28;20839;-87
2022/03/14 08:54:07;;;;;;;3.33;1.70;;;9.70;94.60;;;;;;5032848;28;20218;-87
2022/03/14 08:56:34;;;;;;;3.83;2.03;;;9.60;94.90;;;;;;5009147;28;20193;-87
2022/03/14 08:59:00;;;;;;;2.50;1.80;;;9.60;93.20;;;;;;5031664;28;20189;-87
2022/03/14 09:01:25;;;;;;;3.73;2.00;;;9.50;95.10;;;;;;5024701;28;20255;-87
2022/03/14 09:03:51;;;;;;;2.23;1.83;;;9.40;94.20;;;;;;5029471;28;20177;-87
2022/03/14 09:06:18;;;;;;;2.10;1.50;;;9.60;91.30;;;;;;5035045;28;20181;-87
2022/03/14 09:08:43;;;;;;;2.40;1.77;;;9.80;92.30;;;;;;5038545;28;20279;-87
2022/03/14 09:11:09;;;;;;;2.47;1.73;;;9.70;92.30;;;;;;5035592;28;20579;-87
2022/03/14 09:13:35;;;;;;;5.33;1.87;;;10.00;93.10;;;;;;4997428;28;20243;-87
2022/03/14 09:16:01;;;;;;;4.70;1.60;;;10.00;91.40;;;;;;5040974;28;20244;-87
2022/03/14 09:18:29;;;;;;;7.27;2.43;;;10.00;89.80;;;;;;5027755;28;20208;-87
2022/03/14 09:20:55;;;;;;;8.00;2.00;;;10.20;92.30;;;;;;5039373;28;20239;-87
2022/03/14 09:23:21;;;;;;;3.87;1.87;;;10.60;87.30;;;;;;5031331;28;20201;-87
2022/03/14 09:25:47;;;;;;;3.23;1.70;;;10.60;85.10;;;;;;5030985;28;20196;-87
2022/03/14 09:28:15;;;;;;;3.87;1.83;;;10.30;86.80;;;;;;5025126;28;20182;-87
2022/03/14 09:30:43;;;;;;;3.60;2.03;;;10.40;87.30;;;;;;5037560;28;20188;-87
2022/03/14 09:33:08;;;;;;;3.63;2.60;;;10.60;86.20;;;;;;5040554;28;20177;-87
2022/03/14 09:35:34;;;;;;;5.07;2.13;;;10.60;83.30;;;;;;5025003;28;20228;-87
2022/03/14 09:38:00;;;;;;;1.93;1.73;;;10.70;84.70;;;;;;5011432;28;20196;-87
2022/03/14 09:40:30;;;;;;;8.70;2.30;;;10.80;82.90;;;;;;5032098;28;20213;-87
2022/03/14 09:42:59;;;;;;;6.13;2.20;;;10.90;83.50;;;;;;5042884;28;20233;-87
2022/03/14 09:45:26;;;;;;;3.23;2.07;;;11.00;81.70;;;;;;5066442;28;20173;-87
2022/03/14 09:47:56;;;;;;;2.73;1.77;;;11.00;81.60;;;;;;5038077;28;20189;-86
2022/03/14 09:50:30;;;;;;;6.50;2.13;;;11.10;83.60;;;;;;5034180;28;20258;-86
2022/03/14 09:52:58;;;;;;;3.83;1.97;;;11.30;80.10;;;;;;5045015;28;20192;-86
2022/03/14 09:55:26;;;;;;;3.37;2.00;;;11.60;80.20;;;;;;5038649;28;20177;-87
2022/03/14 09:57:53;;;;;;;4.43;2.53;;;11.70;80.20;;;;;;5030153;28;20210;-86
2022/03/14 10:00:18;;;;;;;4.27;1.97;;;11.70;81.90;;;;;;5023083;28;20710;-87
2022/03/14 10:02:45;;;;;;;4.73;2.03;;;11.80;80.30;;;;;;5017250;28;20202;-86
2022/03/14 10:05:13;;;;;;;4.03;2.23;;;11.80;78.50;;;;;;5022350;28;20259;-87
2022/03/14 10:07:43;;;;;;;5.10;2.60;;;11.90;80.40;;;;;;5010903;28;20976;-87
2022/03/14 10:10:09;;;;;;;3.70;2.30;;;12.20;77.40;;;;;;5024009;28;20190;-87
2022/03/14 10:12:35;;;;;;;6.00;2.30;;;12.20;75.30;;;;;;5003967;28;20569;-87
2022/03/14 10:15:03;;;;;;;4.53;2.10;;;11.80;75.40;;;;;;5036536;28;20177;-86
2022/03/14 10:17:32;;;;;;;3.43;1.93;;;11.60;77.00;;;;;;5022555;28;20221;-87
2022/03/14 10:20:00;;;;;;;6.80;2.10;;;11.20;79.80;;;;;;5029871;28;20209;-87
2022/03/14 10:22:33;;;;;;;4.43;2.43;;;11.20;79.60;;;;;;5023266;28;20259;-87
2022/03/14 10:25:13;;;;;;;2.87;2.10;;;11.40;79.60;;;;;;5042643;28;20224;-87
2022/03/14 10:27:40;;;;;;;4.70;2.07;;;11.70;77.90;;;;;;5028363;28;20259;-87
2022/03/14 10:30:34;;;;;;;4.53;2.00;;;12.20;75.60;;;;;;5027375;28;20180;-87
2022/03/14 10:33:12;;;;;;;3.93;2.00;;;12.30;73.10;;;;;;5036535;28;20291;-86
2022/03/14 10:35:43;;;;;;;5.87;2.10;;;12.20;73.20;;;;;;5028940;28;20174;-87
2022/03/14 10:38:12;;;;;;;5.47;2.30;;;12.50;72.00;;;;;;5041301;28;20217;-87
2022/03/14 10:40:40;;;;;;;3.27;2.10;;;13.10;68.00;;;;;;5050460;28;20206;-87
2022/03/14 10:43:31;;;;;;;4.23;2.00;;;13.10;67.10;;;;;;5032141;28;20235;-87
2022/03/14 10:45:58;;;;;;;3.53;1.90;;;12.50;67.60;;;;;;5040338;28;20267;-87
2022/03/14 10:48:40;;;;;;;4.67;2.13;;;12.30;69.80;;;;;;5027244;28;20185;-87
2022/03/14 10:51:08;;;;;;;4.70;2.10;;;12.10;70.90;;;;;;5034317;28;20268;-86
2022/03/14 10:53:38;;;;;;;6.03;2.17;;;12.20;71.90;;;;;;5029676;28;20186;-86
2022/03/14 10:56:04;;;;;;;5.60;2.43;;;12.10;72.60;;;;;;5027637;28;20192;-87
2022/03/14 10:58:33;;;;;;;6.73;2.30;;;11.90;71.50;;;;;;5028504;28;20247;-88
2022/03/14 11:01:00;;;;;;;4.30;2.20;;;11.80;72.90;;;;;;5033472;28;20212;-86
2022/03/14 11:03:35;;;;;;;4.63;1.93;;;11.70;73.80;;;;;;5027882;28;20189;-87
2022/03/14 11:06:08;;;;;;;3.30;2.00;;;11.80;74.20;;;;;;5019885;28;20201;-86
2022/03/14 11:08:37;;;;;;;4.57;2.27;;;11.90;71.30;;;;;;5021563;28;20178;-87
2022/03/14 11:11:10;;;;;;;4.87;2.10;;;12.20;71.00;;;;;;5025689;28;20206;-86
2022/03/14 11:13:40;;;;;;;4.67;2.43;;;12.90;69.40;;;;;;4992909;28;20204;-87
2022/03/14 11:16:34;;;;;;;4.63;2.10;;;13.60;65.30;;;;;;5026584;28;20215;-87
2022/03/14 11:19:01;;;;;;;3.47;3.03;;;13.50;65.30;;;;;;5043604;28;20609;-87
2022/03/14 11:21:27;;;;;;;4.77;2.60;;;13.80;63.40;;;;;;5041077;28;20205;-86
2022/03/14 11:23:54;;;;;;;7.73;2.50;;;14.10;61.40;;;;;;5046505;28;20247;-87
2022/03/14 11:26:22;;;;;;;4.50;2.20;;;14.10;62.10;;;;;;5026536;28;20227;-86
2022/03/14 11:28:50;;;;;;;6.10;2.33;;;13.90;59.00;;;;;;5028915;28;20696;-86
2022/03/14 11:31:21;;;;;;;7.23;6.53;;;13.60;60.00;;;;;;5026536;28;20224;-87
2022/03/14 11:33:48;;;;;;;3.57;2.10;;;13.60;60.30;;;;;;5044613;28;20195;-87
2022/03/14 11:36:18;;;;;;;12.57;10.33;;;13.40;59.50;;;;;;5044472;28;20204;-87
2022/03/14 11:38:44;;;;;;;8.50;6.97;;;13.30;61.30;;;;;;5035132;28;20183;-87
2022/03/14 11:41:10;;;;;;;4.27;3.40;;;13.30;60.00;;;;;;5033830;28;20236;-86
2022/03/14 11:43:39;;;;;;;3.60;2.07;;;13.40;59.60;;;;;;5046161;28;20182;-86
2022/03/14 11:46:05;;;;;;;3.17;2.10;;;13.50;60.10;;;;;;5042710;28;20192;-86
2022/03/14 11:48:32;;;;;;;2.60;1.90;;;13.50;58.60;;;;;;5045157;28;20589;-86
2022/03/14 11:51:03;;;;;;;5.00;2.60;;;14.10;57.60;;;;;;5044561;28;20226;-86
2022/03/14 11:53:32;;;;;;;8.10;5.80;;;14.70;55.40;;;;;;5040434;28;20197;-87
2022/03/14 11:56:08;;;;;;;3.80;2.60;;;14.70;55.30;;;;;;5023779;28;20209;-86
2022/03/14 11:58:42;;;;;;;3.47;2.00;;;14.70;52.80;;;;;;5034997;28;20195;-86
2022/03/14 12:01:22;;;;;;;2.83;1.80;;;14.40;51.00;;;;;;5038754;28;20263;-86
2022/03/14 12:04:10;;;;;;;5.00;2.20;;;14.20;51.60;;;;;;5049406;28;20196;-86
2022/03/14 12:06:47;;;;;;;5.20;2.40;;;14.10;52.80;;;;;;5045591;28;20174;-86
2022/03/14 12:09:25;;;;;;;6.47;4.67;;;14.10;52.80;;;;;;5054322;28;20170;-86
2022/03/14 12:11:55;;;;;;;2.00;1.53;;;14.10;51.50;;;;;;5048580;28;20269;-87
2022/03/14 12:14:47;;;;;;;2.53;1.93;;;13.90;53.40;;;;;;5057567;28;20185;-87
2022/03/14 12:17:13;;;;;;;4.23;2.07;;;13.40;54.40;;;;;;5026234;28;20197;-88
2022/03/14 12:19:44;;;;;;;5.07;2.20;;;13.30;54.90;;;;;;5039947;28;20211;-88
2022/03/14 12:22:32;;;;;;;5.03;2.13;;;13.30;56.40;;;;;;5040683;28;20318;-88
2022/03/14 12:25:05;;;;;;;8.03;2.50;;;13.10;57.50;;;;;;5042010;28;20661;-87
2022/03/14 12:27:42;;;;;;;3.77;2.10;;;13.20;57.70;;;;;;5021979;28;20188;-88
2022/03/14 12:30:20;;;;;;;4.13;1.90;;;13.40;57.20;;;;;;5040097;28;20193;-88
2022/03/14 12:32:48;;;;;;;9.10;3.60;;;13.50;57.30;;;;;;5043037;28;20231;-88
2022/03/14 12:35:16;;;;;;;6.47;2.20;;;14.00;57.20;;;;;;5044622;28;20266;-88
2022/03/14 12:37:50;;;;;;;4.93;2.03;;;14.90;53.00;;;;;;5023319;28;20276;-86
2022/03/14 12:40:21;;;;;;;6.73;1.90;;;15.30;51.00;;;;;;5022290;28;20200;-86
2022/03/14 12:42:54;;;;;;;4.00;1.93;;;15.40;51.70;;;;;;5040122;28;20216;-86
2022/03/14 12:45:24;;;;;;;4.50;3.87;;;15.80;52.10;;;;;;5040765;28;20217;-86
2022/03/14 12:47:54;;;;;;;3.53;2.60;;;15.90;49.40;;;;;;5044159;28;20183;-87
2022/03/14 12:50:44;;;;;;;4.03;2.10;;;16.00;47.90;;;;;;5036298;28;20194;-88
2022/03/14 12:53:15;;;;;;;5.70;2.43;;;16.20;46.80;;;;;;5025934;28;20197;-88
2022/03/14 12:55:49;;;;;;;5.50;2.13;;;16.10;47.30;;;;;;5044238;28;20195;-88